Time;durP1;ratioP1;P1;durP2;ratioP2;P2;SDS_P1;SDS_P2;PMS_P1;PMS_P2;Temp;Humidity;BMP_temperature;BMP_pressure;BME280_temperature;BME280_humidity;BME280_pressure;Samples;Min_cycle;Max_cycle;Signal;HPM_P1;HPM_P2
2021/10/04 00:00:47;;;;;;;2.80;2.13;;;22.60;56.70;;;;;;6298845;22;20375;-81
2021/10/04 00:03:13;;;;;;;2.07;1.87;;;22.60;56.70;;;;;;6272278;22;20388;-81
2021/10/04 00:05:43;;;;;;;2.07;1.87;;;22.60;56.60;;;;;;6298924;22;20384;-81
2021/10/04 00:08:09;;;;;;;2.20;1.80;;;22.60;56.60;;;;;;6270744;22;20384;-81
2021/10/04 00:10:36;;;;;;;2.20;2.00;;;22.60;56.60;;;;;;6298147;22;20395;-81
2021/10/04 00:13:03;;;;;;;2.27;2.03;;;22.60;56.60;;;;;;6270604;22;21135;-81
2021/10/04 00:15:31;;;;;;;2.07;1.90;;;22.60;56.60;;;;;;6244146;22;20385;-82
2021/10/04 00:17:59;;;;;;;2.27;2.07;;;22.60;56.60;;;;;;6272365;22;20384;-81
2021/10/04 00:20:28;;;;;;;2.13;1.93;;;22.60;56.60;;;;;;6271316;22;20402;-81
2021/10/04 00:22:58;;;;;;;2.10;1.80;;;22.60;56.50;;;;;;6299213;22;20369;-81
2021/10/04 00:28:35;;;;;;;2.50;2.03;;;22.60;56.50;;;;;;6175914;23;20378;-81
2021/10/04 00:31:15;;;;;;;3.70;2.10;;;22.60;56.60;;;;;;6146796;23;20418;-81
2021/10/04 00:33:46;;;;;;;2.67;2.20;;;22.60;56.60;;;;;;6175253;23;20419;-82
2021/10/04 00:36:22;;;;;;;2.27;2.07;;;22.60;56.60;;;;;;6150522;23;20942;-81
2021/10/04 00:38:57;;;;;;;2.37;2.10;;;22.60;56.50;;;;;;6126064;23;20387;-81
2021/10/04 00:41:42;;;;;;;2.10;1.90;;;22.60;56.60;;;;;;6176153;23;20932;-81
2021/10/04 00:44:11;;;;;;;2.13;1.93;;;22.60;56.60;;;;;;6174903;23;20413;-82
2021/10/04 00:47:04;;;;;;;2.70;1.87;;;22.60;56.50;;;;;;6175089;23;20380;-82
2021/10/04 00:49:38;;;;;;;2.13;2.00;;;22.60;56.50;;;;;;6149362;23;20388;-81
2021/10/04 00:52:15;;;;;;;2.10;1.87;;;22.60;56.50;;;;;;6149899;23;20383;-81
2021/10/04 00:54:41;;;;;;;1.90;1.60;;;22.60;56.50;;;;;;6171980;23;20463;-81
2021/10/04 00:57:16;;;;;;;2.10;1.90;;;22.60;56.50;;;;;;6174866;23;20419;-81
2021/10/04 00:59:50;;;;;;;2.83;2.60;;;22.60;56.50;;;;;;6126703;23;20402;-81
2021/10/04 01:02:26;;;;;;;1.70;1.60;;;22.60;56.50;;;;;;6150426;23;20408;-81
2021/10/04 01:04:57;;;;;;;3.40;2.00;;;22.60;56.50;;;;;;6206778;22;20356;-81
2021/10/04 01:07:26;;;;;;;1.93;1.70;;;22.60;56.50;;;;;;6298769;22;20364;-81
2021/10/04 01:09:54;;;;;;;2.40;2.10;;;22.60;56.50;;;;;;6273037;22;20407;-81
2021/10/04 01:12:24;;;;;;;2.37;2.07;;;22.60;56.40;;;;;;6272036;22;20380;-81
2021/10/04 01:14:53;;;;;;;2.80;2.07;;;22.60;57.00;;;;;;6269710;22;20474;-82
2021/10/04 01:17:25;;;;;;;1.90;1.70;;;22.60;56.40;;;;;;6269516;22;20405;-82
2021/10/04 01:20:24;;;;;;;1.90;1.70;;;22.60;56.90;;;;;;6269591;22;20377;-82
2021/10/04 01:22:56;;;;;;;1.90;1.70;;;22.60;56.30;;;;;;6117980;23;20377;-82
2021/10/04 01:25:29;;;;;;;1.70;1.50;;;22.60;56.40;;;;;;6266887;22;20447;-82
2021/10/04 01:27:55;;;;;;;2.10;1.90;;;22.60;56.40;;;;;;6268311;22;20392;-82
2021/10/04 01:30:31;;;;;;;4.53;1.90;;;22.60;56.40;;;;;;6269046;22;20760;-82
2021/10/04 01:32:59;;;;;;;2.07;1.87;;;22.60;56.40;;;;;;6268178;22;20376;-82
2021/10/04 01:35:28;;;;;;;1.70;1.60;;;22.60;56.40;;;;;;6269120;22;20380;-82
2021/10/04 01:37:57;;;;;;;2.23;2.03;;;22.60;56.40;;;;;;6269952;22;20372;-82
2021/10/04 01:40:32;;;;;;;2.30;2.10;;;22.60;56.40;;;;;;6267841;22;20376;-82
2021/10/04 01:43:08;;;;;;;2.27;2.07;;;22.60;56.40;;;;;;6268162;22;20372;-82
2021/10/04 01:45:36;;;;;;;1.83;1.70;;;22.60;56.40;;;;;;6243994;22;20376;-82
2021/10/04 01:48:08;;;;;;;2.00;1.47;;;22.60;56.40;;;;;;6268974;22;20384;-82
2021/10/04 01:50:36;;;;;;;2.50;1.80;;;22.60;56.40;;;;;;6295497;22;20364;-82
2021/10/04 01:53:07;;;;;;;1.90;1.70;;;22.60;56.40;;;;;;6296166;22;20365;-82
2021/10/04 01:55:33;;;;;;;1.57;1.40;;;22.60;56.40;;;;;;6268413;22;20372;-82
2021/10/04 01:58:03;;;;;;;1.93;1.73;;;22.60;56.30;;;;;;6294885;22;20734;-82
2021/10/04 02:00:38;;;;;;;2.53;1.80;;;22.60;56.30;;;;;;6269213;22;20771;-82
2021/10/04 02:03:09;;;;;;;2.40;2.00;;;22.60;56.30;;;;;;6269100;22;20360;-82
2021/10/04 02:05:40;;;;;;;2.03;1.80;;;22.60;56.30;;;;;;6268925;22;20384;-82
2021/10/04 02:08:10;;;;;;;1.90;1.70;;;22.60;56.30;;;;;;6295950;22;20372;-82
2021/10/04 02:10:41;;;;;;;1.70;1.40;;;22.60;56.30;;;;;;6269540;22;20462;-82
2021/10/04 02:13:41;;;;;;;2.10;1.60;;;22.60;56.30;;;;;;6257963;22;20427;-82
2021/10/04 02:16:10;;;;;;;2.00;1.77;;;22.60;56.30;;;;;;6247030;22;20380;-82
2021/10/04 02:18:46;;;;;;;1.70;1.60;;;22.60;56.30;;;;;;6269001;22;20383;-81
2021/10/04 02:21:17;;;;;;;1.60;1.50;;;22.60;56.30;;;;;;6295529;22;20416;-81
2021/10/04 02:23:54;;;;;;;1.53;1.40;;;22.60;56.30;;;;;;6269467;22;20494;-81
2021/10/04 02:26:41;;;;;;;2.27;1.33;;;22.60;56.30;;;;;;6268323;22;20376;-81
2021/10/04 02:29:10;;;;;;;1.83;1.60;;;22.60;56.20;;;;;;6268972;22;20391;-81
2021/10/04 02:31:42;;;;;;;2.10;1.87;;;22.60;56.30;;;;;;6268263;22;20383;-82
2021/10/04 02:34:13;;;;;;;1.83;1.30;;;22.60;56.30;;;;;;6271402;22;20423;-82
2021/10/04 02:36:40;;;;;;;1.63;1.43;;;22.60;56.30;;;;;;6269996;22;20380;-82
2021/10/04 02:39:06;;;;;;;2.30;1.83;;;22.60;56.30;;;;;;6298028;22;20405;-82
2021/10/04 02:41:33;;;;;;;1.50;1.27;;;22.60;56.20;;;;;;6271219;22;20368;-81
2021/10/04 02:43:58;;;;;;;1.97;1.47;;;22.60;56.20;;;;;;6246982;22;20158;-82
2021/10/04 02:46:24;;;;;;;1.70;1.47;;;22.60;56.20;;;;;;6271893;22;20384;-81
2021/10/04 02:48:53;;;;;;;1.70;1.50;;;22.60;56.20;;;;;;6299007;22;20560;-81
2021/10/04 02:51:19;;;;;;;1.43;1.33;;;22.60;56.20;;;;;;6272798;22;20191;-81
2021/10/04 02:53:48;;;;;;;1.97;1.77;;;22.60;56.20;;;;;;6272412;22;20458;-81
2021/10/04 02:56:25;;;;;;;1.73;1.63;;;22.60;56.20;;;;;;6272033;22;20387;-81
2021/10/04 02:58:56;;;;;;;1.57;1.47;;;22.60;56.20;;;;;;6271973;22;20398;-81
2021/10/04 03:01:28;;;;;;;1.40;1.30;;;22.60;56.20;;;;;;6271728;22;20387;-81
2021/10/04 03:04:00;;;;;;;1.80;1.70;;;22.60;56.20;;;;;;6245536;22;20388;-81
2021/10/04 03:06:36;;;;;;;1.80;1.33;;;22.60;56.20;;;;;;6298057;22;20372;-81
2021/10/04 03:09:03;;;;;;;1.60;1.50;;;22.60;56.20;;;;;;6271476;22;20384;-81
2021/10/04 03:11:29;;;;;;;2.43;1.87;;;22.60;56.20;;;;;;6298212;22;20385;-81
2021/10/04 03:14:07;;;;;;;1.77;1.40;;;22.60;56.20;;;;;;6269757;22;20430;-81
2021/10/04 03:16:35;;;;;;;1.70;1.50;;;22.60;56.20;;;;;;6298287;22;20394;-81
2021/10/04 03:19:07;;;;;;;1.37;1.10;;;22.60;56.20;;;;;;6298906;22;20376;-81
2021/10/04 03:21:43;;;;;;;1.63;1.30;;;22.60;56.10;;;;;;6298507;22;20365;-81
2021/10/04 03:24:15;;;;;;;1.80;1.40;;;22.60;56.10;;;;;;6245641;22;20394;-81
2021/10/04 03:26:47;;;;;;;1.60;1.23;;;22.60;56.10;;;;;;6271571;22;20377;-81
2021/10/04 03:29:46;;;;;;;2.17;1.70;;;22.60;56.10;;;;;;6272677;22;20369;-81
2021/10/04 03:32:18;;;;;;;1.50;1.37;;;22.60;56.10;;;;;;6298435;22;20395;-81
2021/10/04 03:34:49;;;;;;;1.67;1.57;;;22.60;56.20;;;;;;6272218;22;20420;-81
2021/10/04 03:37:19;;;;;;;2.07;1.40;;;22.60;56.20;;;;;;6271480;22;20388;-81
2021/10/04 03:39:45;;;;;;;1.60;1.30;;;22.50;56.10;;;;;;6295507;22;20754;-81
2021/10/04 03:42:14;;;;;;;1.30;1.10;;;22.60;56.10;;;;;;6297896;22;20372;-81
2021/10/04 03:44:46;;;;;;;1.50;1.30;;;22.60;56.10;;;;;;6270917;22;20397;-80
2021/10/04 03:47:21;;;;;;;1.20;1.00;;;22.60;56.10;;;;;;6271685;22;20395;-80
2021/10/04 03:49:53;;;;;;;1.87;1.27;;;22.60;56.10;;;;;;6273031;22;20364;-80
2021/10/04 03:52:21;;;;;;;1.17;1.00;;;22.60;56.10;;;;;;6271421;22;20372;-80
2021/10/04 03:54:50;;;;;;;1.30;1.10;;;22.60;56.10;;;;;;6271931;22;20424;-81
2021/10/04 03:57:26;;;;;;;1.20;1.10;;;22.60;56.10;;;;;;6271411;22;20376;-80
2021/10/04 04:00:01;;;;;;;1.10;0.93;;;22.60;56.10;;;;;;6248427;22;20842;-80
2021/10/04 04:02:30;;;;;;;1.40;0.93;;;22.60;56.10;;;;;;6299084;22;20407;-80
2021/10/04 04:05:06;;;;;;;1.60;1.37;;;22.50;56.00;;;;;;6272727;22;20404;-80
2021/10/04 04:07:32;;;;;;;2.40;1.03;;;22.60;56.10;;;;;;6272551;22;20427;-80
2021/10/04 04:09:58;;;;;;;1.33;1.23;;;22.50;56.00;;;;;;6272906;22;20380;-80
2021/10/04 04:12:24;;;;;;;1.20;1.10;;;22.50;56.00;;;;;;6298069;22;20487;-80
2021/10/04 04:18:15;;;;;;;1.63;1.10;;;22.60;56.10;;;;;;6299772;22;20165;-81
2021/10/04 04:20:40;;;;;;;1.20;1.00;;;22.50;56.10;;;;;;6272645;22;20399;-81
2021/10/04 04:23:06;;;;;;;1.57;1.03;;;22.50;56.10;;;;;;6272905;22;20392;-81
2021/10/04 04:25:32;;;;;;;1.80;1.30;;;22.50;56.10;;;;;;6272789;22;20162;-81
2021/10/04 04:28:28;;;;;;;1.43;1.23;;;22.50;56.00;;;;;;6272349;22;20153;-81
2021/10/04 04:30:56;;;;;;;1.53;1.13;;;22.60;56.10;;;;;;6271803;22;20162;-81
2021/10/04 04:33:22;;;;;;;1.27;1.03;;;22.50;56.00;;;;;;6298755;22;20419;-81
2021/10/04 04:39:10;;;;;;;1.40;1.10;;;22.60;56.10;;;;;;6298559;22;20464;-81
2021/10/04 04:41:36;;;;;;;1.40;1.10;;;22.50;56.10;;;;;;6298794;22;20372;-81
2021/10/04 04:44:05;;;;;;;1.10;0.90;;;22.50;56.10;;;;;;6298632;22;20150;-80
2021/10/04 04:46:30;;;;;;;1.20;1.10;;;22.50;56.00;;;;;;6271880;22;20217;-81
2021/10/04 04:49:08;;;;;;;1.10;0.90;;;22.50;56.00;;;;;;6300020;22;20373;-81
2021/10/04 04:51:38;;;;;;;1.30;1.10;;;22.50;56.00;;;;;;6300188;22;20233;-80
2021/10/04 04:54:04;;;;;;;1.97;1.37;;;22.50;56.10;;;;;;6273271;22;20424;-80
2021/10/04 04:56:30;;;;;;;1.37;1.20;;;22.50;56.10;;;;;;6300268;22;20376;-80
2021/10/04 04:58:56;;;;;;;1.33;1.23;;;22.60;56.20;;;;;;6300585;22;20428;-80
2021/10/04 05:01:31;;;;;;;1.53;1.20;;;22.60;56.20;;;;;;6300418;22;20368;-80
2021/10/04 05:03:57;;;;;;;1.93;1.43;;;22.60;56.20;;;;;;6300626;22;20122;-80
2021/10/04 05:06:23;;;;;;;1.60;1.13;;;22.60;56.30;;;;;;6273607;22;20415;-81
2021/10/04 05:08:49;;;;;;;1.67;1.13;;;22.60;56.30;;;;;;6275002;22;20165;-80
2021/10/04 05:11:17;;;;;;;1.20;1.07;;;22.60;56.40;;;;;;6274134;22;20163;-81
2021/10/04 05:13:47;;;;;;;1.60;1.27;;;22.60;56.40;;;;;;6273940;22;20215;-80
2021/10/04 05:16:14;;;;;;;1.97;1.30;;;22.60;56.30;;;;;;6271685;22;20373;-82
2021/10/04 05:18:44;;;;;;;1.20;1.00;;;22.60;56.30;;;;;;6269922;22;20407;-83
2021/10/04 05:21:43;;;;;;;1.30;1.20;;;22.70;56.30;;;;;;6270753;22;20376;-83
2021/10/04 05:24:12;;;;;;;1.33;1.23;;;22.70;56.20;;;;;;6270675;22;20395;-83
2021/10/04 05:26:43;;;;;;;1.37;1.20;;;22.70;56.20;;;;;;6271534;22;20380;-82
2021/10/04 05:29:09;;;;;;;1.10;1.00;;;22.70;56.20;;;;;;6297929;22;20344;-84
2021/10/04 05:31:35;;;;;;;1.20;1.10;;;22.70;56.20;;;;;;6297083;22;20388;-83
2021/10/04 05:37:25;;;;;;;1.13;1.00;;;22.80;56.20;;;;;;6296136;22;20343;-84
2021/10/04 05:39:53;;;;;;;2.27;1.10;;;22.70;56.20;;;;;;6269725;22;20410;-83
2021/10/04 05:42:19;;;;;;;1.20;1.07;;;22.70;56.10;;;;;;6269805;22;20391;-83
2021/10/04 05:44:45;;;;;;;1.50;1.07;;;22.70;56.10;;;;;;6269817;22;20475;-83
2021/10/04 05:47:14;;;;;;;1.47;1.20;;;22.70;56.10;;;;;;6296021;22;20150;-83
2021/10/04 05:49:40;;;;;;;1.63;1.53;;;22.70;56.10;;;;;;6269559;22;20381;-83
2021/10/04 05:52:09;;;;;;;1.20;0.97;;;22.80;56.10;;;;;;6269769;22;20389;-83
2021/10/04 05:54:38;;;;;;;1.10;0.97;;;22.80;56.20;;;;;;6268801;22;20416;-83
2021/10/04 05:57:04;;;;;;;2.07;1.10;;;22.80;56.10;;;;;;6269775;22;20404;-83
2021/10/04 05:59:31;;;;;;;1.73;1.00;;;22.80;56.10;;;;;;6269293;22;20387;-83
2021/10/04 06:01:59;;;;;;;2.60;1.00;;;22.80;56.10;;;;;;6244525;22;20388;-83
2021/10/04 06:04:25;;;;;;;1.47;1.10;;;22.80;56.10;;;;;;6269695;22;20505;-83
2021/10/04 06:06:51;;;;;;;1.50;1.10;;;22.80;56.10;;;;;;6268610;22;20902;-83
2021/10/04 06:09:16;;;;;;;2.13;1.23;;;22.80;56.10;;;;;;6267610;22;20172;-83
2021/10/04 06:11:42;;;;;;;1.67;1.10;;;22.80;56.10;;;;;;6266063;22;20372;-82
2021/10/04 06:14:08;;;;;;;2.03;1.07;;;22.80;56.10;;;;;;6266382;22;20177;-83
2021/10/04 06:16:35;;;;;;;1.40;1.20;;;22.80;56.00;;;;;;6267012;22;20204;-83
2021/10/04 06:19:01;;;;;;;2.03;0.90;;;22.80;56.00;;;;;;6266233;22;20145;-84
2021/10/04 06:21:27;;;;;;;1.03;0.93;;;22.80;56.00;;;;;;6267458;22;20376;-83
2021/10/04 06:23:58;;;;;;;1.47;1.27;;;22.80;56.00;;;;;;6266322;22;20395;-83
2021/10/04 06:26:36;;;;;;;1.83;1.17;;;22.80;55.90;;;;;;6293280;22;20146;-84
2021/10/04 06:29:05;;;;;;;1.37;1.00;;;22.80;55.90;;;;;;6291535;22;20380;-83
2021/10/04 06:31:34;;;;;;;1.40;1.00;;;22.80;55.90;;;;;;6266247;22;20965;-83
2021/10/04 06:34:08;;;;;;;2.80;1.27;;;22.80;55.90;;;;;;6266456;22;20428;-83
2021/10/04 06:36:38;;;;;;;1.20;0.97;;;22.80;56.00;;;;;;6266815;22;20371;-82
2021/10/04 06:39:28;;;;;;;1.47;1.10;;;22.80;55.90;;;;;;6264110;22;20481;-84
2021/10/04 06:42:05;;;;;;;1.10;0.80;;;22.90;56.00;;;;;;6267211;22;20407;-83
2021/10/04 06:44:31;;;;;;;1.80;1.03;;;22.90;56.00;;;;;;6267226;22;20384;-83
2021/10/04 06:47:01;;;;;;;1.57;1.27;;;22.80;55.90;;;;;;6267549;22;20460;-83
2021/10/04 06:49:34;;;;;;;1.53;1.17;;;22.90;56.00;;;;;;6294866;22;20369;-83
2021/10/04 06:52:02;;;;;;;1.97;0.90;;;22.90;56.00;;;;;;6293668;22;20357;-83
2021/10/04 06:54:40;;;;;;;1.43;0.87;;;22.90;56.00;;;;;;6269001;22;20465;-81
2021/10/04 06:57:20;;;;;;;1.93;1.10;;;22.90;56.00;;;;;;6273833;22;20368;-80
2021/10/04 07:03:12;;;;;;;1.40;1.00;;;22.90;55.90;;;;;;6238285;23;20393;-79
2021/10/04 07:09:09;;;;;;;2.10;1.07;;;22.90;56.00;;;;;;6237655;23;20389;-80
2021/10/04 07:31:26;;;;;;;1.33;0.90;;;22.80;56.00;;;;;;6135098;23;20371;-81
2021/10/04 07:33:52;;;;;;;1.47;0.90;;;22.80;56.10;;;;;;6123287;23;20461;-79
2021/10/04 07:39:53;;;;;;;1.47;1.00;;;22.80;56.10;;;;;;6114230;23;20167;-80
2021/10/04 07:42:23;;;;;;;2.23;0.93;;;22.90;56.20;;;;;;6147786;23;20377;-80
2021/10/04 07:44:53;;;;;;;1.10;0.80;;;22.90;56.20;;;;;;6125021;23;20379;-80
2021/10/04 07:47:22;;;;;;;1.30;0.97;;;22.90;56.10;;;;;;6124911;23;20453;-79
2021/10/04 07:49:58;;;;;;;;;;;;;;;;;;;;;
2021/10/04 07:52:51;;;;;;;2.13;1.17;;;22.90;56.10;;;;;;6148878;23;20388;-80
2021/10/04 08:09:19;;;;;;;;;;;;;;;;;;;;;
2021/10/04 08:15:48;;;;;;;1.90;1.20;;;22.90;56.10;;;;;;6208304;23;20457;-80
2021/10/04 08:24:45;;;;;;;1.00;0.80;;;22.90;56.10;;;;;;6207725;23;20492;-80
2021/10/04 08:27:34;;;;;;;3.07;0.90;;;22.90;56.10;;;;;;6208716;23;20371;-81
2021/10/04 08:43:26;;;;;;;;;;;;;;;;;;;;;
2021/10/04 08:52:10;;;;;;;1.07;0.80;;;22.90;56.10;;;;;;6118890;23;20548;-80
2021/10/04 08:54:44;;;;;;;0.90;0.80;;;22.90;56.10;;;;;;6110745;23;20405;-83
2021/10/04 08:57:11;;;;;;;1.57;0.80;;;23.00;56.10;;;;;;6086955;23;20390;-83
2021/10/04 08:59:47;;;;;;;1.47;0.90;;;23.00;56.10;;;;;;6086746;23;20378;-83
2021/10/04 09:02:30;;;;;;;3.03;0.90;;;23.00;56.10;;;;;;6111810;23;20361;-83
2021/10/04 09:05:27;;;;;;;1.67;1.07;;;23.00;56.00;;;;;;6088971;23;20427;-83
2021/10/04 09:08:12;;;;;;;1.27;0.80;;;23.00;56.00;;;;;;6093346;23;20422;-80
2021/10/04 09:10:56;;;;;;;1.23;0.90;;;23.00;56.00;;;;;;6072813;23;20425;-80
2021/10/04 09:13:24;;;;;;;1.00;0.80;;;23.00;56.00;;;;;;6063969;23;20422;-80
2021/10/04 09:15:59;;;;;;;1.20;0.90;;;23.00;56.00;;;;;;6064150;23;20402;-80
2021/10/04 09:18:45;;;;;;;1.30;0.90;;;23.00;56.00;;;;;;6064418;23;20470;-80
2021/10/04 09:21:16;;;;;;;1.10;1.00;;;23.00;56.00;;;;;;6087352;23;20959;-80
2021/10/04 09:24:21;;;;;;;1.20;0.90;;;23.00;56.00;;;;;;6088815;23;20371;-80
2021/10/04 09:26:56;;;;;;;1.27;0.83;;;23.00;56.00;;;;;;6013211;23;20389;-80
2021/10/04 09:29:24;;;;;;;1.83;0.83;;;23.00;56.00;;;;;;6130035;23;20379;-80
2021/10/04 09:32:03;;;;;;;1.00;0.90;;;23.00;56.00;;;;;;6201253;23;20379;-80
2021/10/04 09:34:31;;;;;;;1.00;0.70;;;23.00;56.00;;;;;;6180866;23;20423;-79
2021/10/04 09:37:04;;;;;;;3.00;0.93;;;23.00;56.00;;;;;;6181042;23;20375;-80
2021/10/04 09:39:36;;;;;;;1.20;0.90;;;23.00;56.00;;;;;;6182367;23;20582;-80
2021/10/04 09:42:07;;;;;;;1.17;0.83;;;23.00;56.00;;;;;;6205616;23;20431;-81
2021/10/04 09:44:43;;;;;;;1.00;0.90;;;23.10;56.10;;;;;;6180946;23;20387;-81
2021/10/04 09:47:24;;;;;;;1.00;0.80;;;23.10;56.00;;;;;;6180888;23;20386;-81
2021/10/04 09:50:01;;;;;;;1.20;0.90;;;23.10;56.00;;;;;;6180783;23;20410;-81
2021/10/04 09:53:26;;;;;;;2.37;0.90;;;23.10;56.00;;;;;;6180581;23;20410;-81
2021/10/04 09:56:04;;;;;;;2.53;1.03;;;23.10;56.00;;;;;;6173891;23;20387;-82
2021/10/04 09:58:33;;;;;;;1.50;0.90;;;23.00;56.00;;;;;;6204773;23;20481;-81
2021/10/04 10:04:24;;;;;;;1.43;0.77;;;23.10;56.10;;;;;;6206410;23;20347;-81
2021/10/04 10:06:50;;;;;;;1.00;0.77;;;23.00;56.10;;;;;;6131295;23;20670;-81
2021/10/04 10:09:19;;;;;;;1.10;0.97;;;23.00;56.10;;;;;;6178375;23;20383;-81
2021/10/04 10:11:51;;;;;;;2.87;0.80;;;23.10;56.10;;;;;;6180348;23;20375;-81
2021/10/04 10:18:22;;;;;;;1.53;0.90;;;23.10;56.10;;;;;;6087464;23;20472;-81
2021/10/04 10:21:03;;;;;;;1.83;0.93;;;23.10;56.10;;;;;;6088102;23;20381;-81
2021/10/04 10:24:09;;;;;;;1.50;0.80;;;23.10;56.10;;;;;;6064554;23;20391;-81
2021/10/04 10:26:36;;;;;;;1.63;0.70;;;23.10;56.10;;;;;;6049287;23;20418;-83
2021/10/04 10:29:19;;;;;;;0.90;0.80;;;23.10;56.20;;;;;;6060650;23;20410;-84
2021/10/04 10:32:00;;;;;;;2.93;1.00;;;23.10;56.20;;;;;;6061286;23;20397;-84
2021/10/04 10:34:35;;;;;;;1.17;0.80;;;23.10;56.20;;;;;;6061154;23;20426;-84
2021/10/04 10:37:15;;;;;;;1.10;1.00;;;23.10;56.20;;;;;;6060654;23;20394;-84
2021/10/04 10:40:00;;;;;;;2.17;0.87;;;23.10;56.10;;;;;;6083784;23;20399;-84
2021/10/04 10:43:07;;;;;;;1.10;0.83;;;23.10;56.10;;;;;;6062133;23;20425;-84
2021/10/04 10:45:47;;;;;;;2.43;0.87;;;23.10;56.10;;;;;;6061554;23;20454;-84
2021/10/04 10:48:41;;;;;;;0.90;0.80;;;23.10;56.20;;;;;;6152401;23;20386;-84
2021/10/04 10:54:52;;;;;;;1.30;0.80;;;23.10;56.10;;;;;;6088094;23;20456;-84
2021/10/04 10:57:51;;;;;;;2.20;0.83;;;23.10;56.20;;;;;;6101663;23;20387;-84
2021/10/04 11:00:25;;;;;;;1.37;0.70;;;23.10;56.20;;;;;;6140532;23;20405;-85
2021/10/04 11:06:09;;;;;;;1.47;0.90;;;23.10;56.20;;;;;;6057071;23;20383;-82
2021/10/04 11:09:09;;;;;;;1.33;1.00;;;23.10;56.20;;;;;;6057635;23;20380;-83
2021/10/04 11:18:13;;;;;;;4.73;2.50;;;23.10;56.20;;;;;;6028707;23;20392;-83
2021/10/04 11:21:03;;;;;;;4.03;2.60;;;23.10;56.20;;;;;;6027477;23;20372;-83
2021/10/04 11:23:29;;;;;;;5.80;3.23;;;23.10;56.20;;;;;;6003515;23;20384;-83
2021/10/04 11:26:20;;;;;;;5.90;3.60;;;23.10;56.20;;;;;;6027213;23;20911;-83
2021/10/04 11:28:49;;;;;;;9.57;3.40;;;23.20;56.30;;;;;;6022668;23;20167;-83
2021/10/04 11:31:23;;;;;;;4.67;3.10;;;23.10;56.20;;;;;;6075319;23;20393;-83
2021/10/04 11:34:09;;;;;;;5.20;4.13;;;23.20;56.30;;;;;;6112720;23;20773;-83
2021/10/04 11:36:48;;;;;;;6.10;3.93;;;23.20;56.20;;;;;;6112765;23;20873;-83
2021/10/04 11:39:26;;;;;;;6.23;3.77;;;23.20;56.20;;;;;;6117197;23;20377;-83
2021/10/04 11:42:05;;;;;;;7.57;3.27;;;23.20;56.20;;;;;;6126784;23;20397;-83
2021/10/04 11:44:34;;;;;;;6.90;3.63;;;23.20;56.20;;;;;;6155398;23;20371;-83
2021/10/04 11:47:07;;;;;;;5.60;3.47;;;23.20;56.20;;;;;;6154567;23;20541;-83
2021/10/04 11:49:41;;;;;;;8.30;3.70;;;23.20;56.80;;;;;;6271621;22;20360;-83
2021/10/04 11:52:20;;;;;;;8.03;3.87;;;23.20;56.20;;;;;;6302337;22;20360;-83
2021/10/04 11:54:55;;;;;;;6.13;3.30;;;23.20;56.20;;;;;;6275442;22;20496;-83
2021/10/04 11:57:21;;;;;;;8.80;4.30;;;23.20;56.20;;;;;;6249845;22;20386;-83
2021/10/04 12:00:01;;;;;;;7.43;3.67;;;23.20;56.20;;;;;;6275466;22;20384;-83
2021/10/04 12:02:45;;;;;;;5.90;4.23;;;23.20;56.20;;;;;;6275088;22;20166;-83
2021/10/04 12:05:23;;;;;;;5.17;3.53;;;23.20;56.20;;;;;;6274442;22;20403;-83
2021/10/04 12:08:00;;;;;;;6.03;4.03;;;23.20;56.20;;;;;;6301575;22;20420;-83
2021/10/04 12:10:57;;;;;;;6.77;3.80;;;23.20;56.20;;;;;;6301345;22;20348;-83
2021/10/04 12:13:30;;;;;;;6.70;4.23;;;23.20;56.20;;;;;;6275283;22;20563;-83
2021/10/04 12:16:33;;;;;;;5.07;4.20;;;23.20;56.30;;;;;;6301399;22;20365;-83
2021/10/04 12:19:02;;;;;;;11.00;4.07;;;23.20;56.30;;;;;;6271031;22;20380;-83
2021/10/04 12:21:34;;;;;;;10.47;3.70;;;23.20;56.30;;;;;;6275198;22;20388;-83
2021/10/04 12:24:18;;;;;;;6.63;3.73;;;23.20;56.30;;;;;;6300320;22;20376;-83
2021/10/04 12:26:49;;;;;;;7.63;4.07;;;23.20;56.30;;;;;;6300840;22;20361;-84
2021/10/04 12:29:38;;;;;;;7.13;4.03;;;23.20;56.30;;;;;;6299785;22;20357;-84
2021/10/04 12:32:42;;;;;;;6.40;3.50;;;23.30;56.30;;;;;;6273427;22;20376;-84
2021/10/04 12:35:23;;;;;;;7.07;4.00;;;23.30;56.30;;;;;;6122733;23;20447;-83
2021/10/04 12:37:58;;;;;;;12.80;3.90;;;23.20;56.30;;;;;;6122358;23;20387;-83
2021/10/04 12:40:56;;;;;;;8.70;4.20;;;23.20;56.30;;;;;;6123220;23;20384;-83
2021/10/04 12:43:25;;;;;;;9.30;3.73;;;23.30;56.30;;;;;;6145909;23;20483;-83
2021/10/04 12:49:20;;;;;;;5.73;3.70;;;23.30;56.30;;;;;;6142556;23;20471;-84
2021/10/04 12:51:48;;;;;;;5.50;3.70;;;23.30;56.40;;;;;;6145271;23;20369;-85
2021/10/04 12:54:14;;;;;;;6.43;3.37;;;23.20;56.30;;;;;;6122369;23;20469;-85
2021/10/04 12:56:45;;;;;;;6.80;3.80;;;23.20;56.30;;;;;;6121825;23;20426;-85
2021/10/04 12:59:12;;;;;;;6.50;3.60;;;23.30;56.40;;;;;;6145981;23;20342;-85
2021/10/04 13:01:55;;;;;;;7.57;3.80;;;23.30;56.40;;;;;;6121524;23;20405;-85
2021/10/04 13:04:47;;;;;;;7.10;3.90;;;23.30;56.30;;;;;;6120924;23;20381;-85
2021/10/04 13:07:13;;;;;;;6.37;3.57;;;23.30;56.30;;;;;;6033418;23;20391;-84
2021/10/04 13:09:39;;;;;;;5.97;4.33;;;23.30;56.30;;;;;;6045970;23;20415;-84
2021/10/04 13:12:06;;;;;;;6.70;3.93;;;23.30;56.40;;;;;;6172925;23;20444;-84
2021/10/04 13:14:36;;;;;;;4.70;3.77;;;23.30;56.40;;;;;;6147535;23;20422;-84
2021/10/04 13:17:26;;;;;;;5.77;3.10;;;23.30;56.40;;;;;;6124183;23;20376;-84
2021/10/04 13:26:23;;;;;;;8.63;4.43;;;23.40;56.50;;;;;;6056947;23;20476;-83
2021/10/04 13:29:01;;;;;;;6.67;3.60;;;23.40;56.60;;;;;;6009588;23;20428;-83
2021/10/04 13:31:40;;;;;;;7.37;3.50;;;23.40;56.70;;;;;;6033383;23;20870;-84
2021/10/04 13:34:09;;;;;;;5.80;3.23;;;23.40;56.70;;;;;;6032916;23;20442;-83
2021/10/04 13:36:45;;;;;;;7.57;3.70;;;23.40;56.70;;;;;;6010286;23;20568;-83
2021/10/04 13:39:21;;;;;;;8.03;3.23;;;23.40;56.70;;;;;;6032877;23;20395;-83
2021/10/04 13:42:03;;;;;;;;;;;;;;;;;;;;;
2021/10/04 13:44:35;;;;;;;4.77;2.70;;;23.50;56.70;;;;;;6121643;23;20373;-83
2021/10/04 13:47:07;;;;;;;4.33;3.30;;;23.50;56.70;;;;;;6121631;23;20724;-84
2021/10/04 13:49:33;;;;;;;4.87;3.00;;;23.50;56.60;;;;;;6120166;23;20388;-83
2021/10/04 13:52:40;;;;;;;6.93;4.00;;;23.50;56.60;;;;;;6121790;23;20400;-83
2021/10/04 13:55:19;;;;;;;4.40;3.53;;;23.60;56.70;;;;;;6076733;23;20551;-84
2021/10/04 14:00:41;;;;;;;4.47;3.27;;;23.60;56.70;;;;;;6148240;23;20361;-83
2021/10/04 14:03:07;;;;;;;8.13;3.27;;;23.60;56.70;;;;;;6237282;22;20387;-83
2021/10/04 14:05:36;;;;;;;5.47;3.33;;;23.60;56.60;;;;;;6272568;22;20463;-84
2021/10/04 14:08:05;;;;;;;4.90;3.17;;;23.60;56.60;;;;;;6273091;22;20161;-84
2021/10/04 14:11:11;;;;;;;4.47;2.53;;;23.60;56.60;;;;;;6273088;22;20392;-84
2021/10/04 14:13:55;;;;;;;;;;;;;;;;;;;;;
2021/10/04 14:16:25;;;;;;;5.10;3.40;;;23.60;56.60;;;;;;6299783;22;20361;-84
2021/10/04 14:19:09;;;;;;;5.33;3.37;;;23.60;56.50;;;;;;6272543;22;20373;-84
2021/10/04 14:21:54;;;;;;;6.50;3.93;;;23.60;56.60;;;;;;6300115;22;20357;-84
2021/10/04 14:24:22;;;;;;;8.13;4.47;;;23.60;56.60;;;;;;6273105;22;20376;-84
2021/10/04 14:27:15;;;;;;;7.23;4.70;;;23.60;56.50;;;;;;6298785;22;20373;-84
2021/10/04 14:29:56;;;;;;;5.67;3.80;;;23.70;56.60;;;;;;6264229;22;20415;-85
2021/10/04 14:32:34;;;;;;;6.77;4.73;;;23.70;56.60;;;;;;6264655;22;20380;-85
2021/10/04 14:35:05;;;;;;;9.93;5.07;;;23.70;56.60;;;;;;6265204;22;20428;-85
2021/10/04 14:37:41;;;;;;;9.27;4.70;;;23.70;56.60;;;;;;6291631;22;20356;-85
2021/10/04 14:40:18;;;;;;;6.33;4.50;;;23.70;56.60;;;;;;6273243;22;20376;-84
2021/10/04 14:43:13;;;;;;;7.50;4.50;;;23.70;56.60;;;;;;6233919;22;20403;-84
2021/10/04 15:16:02;;;;;;;5.47;4.20;;;23.70;56.70;;;;;;6184590;23;20444;-84
2021/10/04 15:22:39;;;;;;;;;;;;;;;;;;;;;
2021/10/04 15:28:10;;;;;;;;;;;;;;;;;;;;;
2021/10/04 15:36:31;;;;;;;7.83;3.60;;;23.70;56.70;;;;;;6205891;22;20433;-85
2021/10/04 15:47:09;;;;;;;7.23;3.90;;;23.70;56.60;;;;;;6282911;22;20429;-82
2021/10/04 15:49:39;;;;;;;9.43;4.23;;;23.80;56.70;;;;;;6306310;22;20381;-83
2021/10/04 16:09:10;;;;;;;6.90;3.10;;;23.80;56.60;;;;;;6238162;22;20469;-84
2021/10/04 16:19:24;;;;;;;4.90;2.97;;;23.80;56.60;;;;;;6260381;22;20468;-83
2021/10/04 16:22:02;;;;;;;5.10;3.23;;;23.80;56.60;;;;;;6237510;23;20388;-83
2021/10/04 16:28:33;;;;;;;;;;;;;;;;;;;;;
2021/10/04 16:31:15;;;;;;;3.63;2.63;;;23.90;56.60;;;;;;6196833;23;20366;-84
2021/10/04 16:33:54;;;;;;;;;;;;;;;;;;;;;
2021/10/04 16:36:27;;;;;;;4.23;2.67;;;23.80;56.60;;;;;;6273309;23;20346;-84
2021/10/04 16:38:56;;;;;;;5.20;3.30;;;23.90;56.60;;;;;;6246251;23;20352;-84
2021/10/04 16:41:34;;;;;;;3.57;2.60;;;23.80;57.10;;;;;;6245971;23;20358;-84
2021/10/04 16:44:29;;;;;;;4.17;2.63;;;23.90;56.60;;;;;;6229818;22;20357;-84
2021/10/04 17:00:06;;;;;;;3.40;2.50;;;23.80;56.60;;;;;;6266062;23;20377;-85
2021/10/04 17:02:43;;;;;;;4.30;2.53;;;23.80;56.60;;;;;;6213588;23;20386;-84
2021/10/04 17:05:12;;;;;;;2.70;2.17;;;23.80;56.60;;;;;;6263475;23;20362;-82
2021/10/04 17:07:43;;;;;;;3.03;2.43;;;23.80;56.60;;;;;;6266877;23;20445;-85